Ober, Indiana
Current Conditions -  °F | °C
As of 4:15 AM on Thursday 29 Jan 2015 (Local Time) from KOXI Reporting Station
Scattered Clouds Scattered Clouds  
Wind Chill: 27°   Ceiling: Unl
Heat Index: 35°   Visibility: 10mi
Dew Point: 11°   Wind: 10mph
Humidity: 37%   Direction: 170°S
Pressure: 29.73"   Gusts: NA
Location:  41.2954°N, 86.6039°W
Report Text: KOXI 291015Z AUTO 17009KT 10SM SCT090 02/M12 A2973 RMK AO1 T00161117
Loading
Personal Weather Stations






























Interactive Weather Map New forecast layout! Learn more

10-Day Weather Forecast

Advertisements
Track Severe Weather on mobile